This is the latest recevied weather packets stored in our database for station/object XE2KK-10. If no packets are shown the sender has not sent any weather packets the latest 10 day(s).
| Time | Temp. | Humidity | Pressure | Rain* | Wind** | Luminosity | Snow |
|---|---|---|---|---|---|---|---|
| 1777834452 | 23.89° C | 50% | 1019.7 hPa | 0 mm | - | 782 W/m² | - |
| 1777834153 | 23.33° C | 49% | 1019.8 hPa | 0 mm | - | 772 W/m² | - |
| 1777833853 | 24.44° C | 48% | 1020.2 hPa | 0 mm | - | 779 W/m² | - |
| 1777833553 | 22.78° C | 51% | 1020.3 hPa | 0 mm | - | 792 W/m² | - |
| 1777833253 | 22.78° C | 51% | 1020.4 hPa | 0 mm | - | 798 W/m² | - |
| 1777832953 | 23.33° C | 49% | 1020.6 hPa | 0 mm | - | 811 W/m² | - |
| 1777832653 | 23.33° C | 50% | 1020.8 hPa | 0 mm | - | 823 W/m² | - |
| 1777832353 | 23.33° C | 49% | 1021.1 hPa | 0 mm | - | 811 W/m² | - |
| 1777832053 | 23.33° C | 50% | 1021 hPa | 0 mm | - | 793 W/m² | - |
| 1777831753 | 23.33° C | 50% | 1021.2 hPa | 0 mm | - | 789 W/m² | - |
| 1777831452 | 23.33° C | 50% | 1021.2 hPa | 0 mm | - | 784 W/m² | - |
| 1777831152 | 22.78° C | 51% | 1021.5 hPa | 0 mm | - | 788 W/m² | - |
| 1777830852 | 22.22° C | 51% | 1021.6 hPa | 0 mm | - | 772 W/m² | - |
| 1777830553 | 23.33° C | 50% | 1021.6 hPa | 0 mm | - | 783 W/m² | - |
| 1777830253 | 22.22° C | 50% | 1021.7 hPa | 0 mm | - | 777 W/m² | - |
| 1777829953 | 21.67° C | 52% | 1021.7 hPa | 0 mm | - | 792 W/m² | - |
| 1777829652 | 21.11° C | 53% | 1021.9 hPa | 0 mm | - | 798 W/m² | - |
| 1777829352 | 22.78° C | 51% | 1022 hPa | 0 mm | - | 810 W/m² | - |
| 1777829053 | 22.78° C | 50% | 1022 hPa | 0 mm | - | 741 W/m² | - |
| 1777828753 | 21.67° C | 53% | 1022.1 hPa | 0 mm | - | 681 W/m² | - |
| 1777828453 | 22.78° C | 51% | 1022.4 hPa | 0 mm | - | 809 W/m² | - |
| 1777828153 | 22.22° C | 51% | 1022.1 hPa | 0 mm | - | 532 W/m² | - |
| 1777827852 | 21.11° C | 53% | 1022.4 hPa | 0 mm | - | 681 W/m² | - |
| 1777827552 | 22.22° C | 51% | 1022.2 hPa | 0 mm | - | 713 W/m² | - |
| 1777827252 | 22.22° C | 50% | 1022.4 hPa | 0 mm | - | 930 W/m² | - |
* Rain latest hour (hover to see other rain measurements)
** Current wind speed in m/s (hover to see current wind gust speed)